Bei Facebook empfehlenBei Twitter postenGoogle plusPinterest

Das Wetter im Erzgebirge am 01.09.2016

Wetter und Klima am 01.09.2016 Holzhau im Erzgebirge (630m ü.NN)
Letzte gemessene Temperatur und Uhrzeit der Messung23:45:00 Uhr11.20 °C
Temperatur (Maximum / Höchstwert) und Uhrzeit der Messung13:30:00 Uhr27.60 °C
Temperatur (Minimum / Tiefstwert) und Uhrzeit der Messung07:00:007.20 °C
Errechneter Absolutwert der Temperaturschwankungen zwischen Tmin und Tmax des Tages20.40 K
Errechnete Tagesmitteltemperatur16.05313 °C
Gesamt - Niederschlag des Tages (in flüssiger Form)0.00 Liter / m²
Luftdruck (Maximum / Höchstwert) und Zeitpunkt der Messung13:45:00 Uhr1019.90 hPa
Luftdruck (Minimum / Tiefstwert) und Zeitpunkt der Messung06:00:00 Uhr1018.10 hPa
Errechneter Absolutwert der Luftdruckschwankungen des Tages1.80 hPa
Höchste gemessene Windgeschwindigkeit und Uhrzeit der Messung23:45:00 Uhr0.00 km/h
Errechnete Windhäufigkeit in Relation zu den Messwerten des Tages0.00000 %
Niedrigste Windkühle (Windchill) und Zeitpunkt der Messung07:00:00 Uhr7.20 °C
Taupunkt (Maximum / Höchstwert) und Uhrzeit der Messung10:00:00 Uhr15.20 °C
Taupunkt (Minimum / Tiefstwert) und Uhrzeit der Messung02:45:004.70 °C
Anzahl der automatisch eingelesenen Messwerte 96

Detaillierte Wetter- und Klima- Messwerte für den 01.09.2016 in Holzhau im Erzgebirge (630m ü.NN)
ZeitTemperaturLuftdruckRel. LuftfeuchteWindWindrichtungWindchillTaupunktNiederschlag l/m²
23:45:0011.20 °C1018.90 hPa85.00 %8.80 °C 
23:30:0011.30 °C1018.80 hPa85.00 %8.90 °C 
23:15:0011.50 °C1018.80 hPa84.00 %8.90 °C 
23:00:0011.60 °C1018.80 hPa83.00 %8.80 °C 
22:45:0011.90 °C1018.90 hPa83.00 %9.10 °C 
22:30:0012.10 °C1018.80 hPa82.00 %9.10 °C 
22:15:0012.30 °C1019.00 hPa81.00 %9.10 °C 
22:00:0012.60 °C1019.20 hPa80.00 %9.20 °C 
21:45:0012.80 °C1019.20 hPa79.00 %9.30 °C 
21:30:0013.10 °C1019.20 hPa77.00 %9.20 °C 
21:15:0013.40 °C1019.30 hPa76.00 %9.30 °C 
21:00:0013.90 °C1019.30 hPa73.00 %9.10 °C 
20:45:0014.50 °C1019.30 hPa72.00 %9.50 °C 
20:30:0015.40 °C1019.40 hPa70.00 %10.00 °C 
20:15:0016.60 °C1019.50 hPa68.00 %10.70 °C 
20:00:0017.90 °C1019.50 hPa66.00 %11.50 °C 
19:45:0019.10 °C1019.60 hPa64.00 %12.10 °C 
19:30:0019.80 °C1019.60 hPa62.00 %12.30 °C 
19:15:0020.40 °C1019.60 hPa61.00 %12.60 °C 
19:00:0020.90 °C1019.50 hPa60.00 %12.80 °C 
18:45:0021.10 °C1019.40 hPa59.00 %12.80 °C 
18:30:0021.30 °C1019.50 hPa58.00 %12.70 °C 
18:15:0021.80 °C1019.50 hPa55.00 %12.40 °C 
18:00:0022.60 °C1019.40 hPa53.00 %12.50 °C 
17:45:0023.50 °C1019.30 hPa51.00 %12.80 °C 
17:30:0024.50 °C1019.30 hPa51.00 %13.70 °C 
17:15:0025.00 °C1019.40 hPa51.00 %14.20 °C 
17:00:0024.50 °C1019.50 hPa53.00 %14.30 °C 
16:45:0024.20 °C1019.40 hPa52.00 %13.70 °C 
16:30:0024.30 °C1019.60 hPa51.00 %13.50 °C 
16:15:0024.20 °C1019.60 hPa52.00 %13.70 °C 
16:00:0023.90 °C1019.50 hPa51.00 %13.20 °C 
15:45:0024.20 °C1019.40 hPa49.00 %12.80 °C 
15:30:0025.00 °C1019.40 hPa49.00 %13.50 °C 
15:15:0024.90 °C1019.50 hPa50.00 %13.80 °C 
15:00:0024.40 °C1019.60 hPa49.00 %13.00 °C 
14:45:0024.80 °C1019.70 hPa46.00 %12.40 °C 
14:30:0025.80 °C1019.70 hPa45.00 %13.00 °C 
14:15:0026.20 °C1019.70 hPa44.00 %13.00 °C 
14:00:0026.90 °C1019.70 hPa45.00 %14.00 °C 
13:45:0027.50 °C1019.90 hPa45.00 %14.50 °C 
13:30:0027.60 °C1019.70 hPa45.00 %14.60 °C 
13:15:0026.60 °C1019.80 hPa46.00 %14.00 °C 
13:00:0026.10 °C1019.90 hPa48.00 %14.20 °C 
12:45:0025.60 °C1019.90 hPa50.00 %14.40 °C 
12:30:0025.10 °C1019.70 hPa50.00 %13.90 °C 
12:15:0024.80 °C1019.60 hPa49.00 %13.40 °C 
12:00:0024.80 °C1019.50 hPa51.00 %14.00 °C 
11:45:0024.50 °C1019.70 hPa51.00 %13.70 °C 
11:30:0024.20 °C1019.70 hPa51.00 %13.40 °C 
11:15:0023.90 °C1019.70 hPa49.00 %12.50 °C 
11:00:0023.90 °C1019.70 hPa52.00 %13.40 °C 
10:45:0023.40 °C1019.60 hPa54.00 %13.60 °C 
10:30:0022.70 °C1019.50 hPa58.00 %14.00 °C 
10:15:0021.80 °C1019.50 hPa62.00 %14.20 °C 
10:00:0020.60 °C1019.60 hPa71.00 %15.20 °C 
09:45:0019.00 °C1019.30 hPa77.00 %14.90 °C 
09:30:0017.40 °C1019.30 hPa81.00 %14.10 °C 
09:15:0015.90 °C1019.30 hPa83.00 %13.00 °C 
09:00:0014.70 °C1019.00 hPa85.00 %12.20 °C 
08:45:0013.30 °C1018.90 hPa86.00 %11.00 °C 
08:30:0012.30 °C1018.80 hPa87.00 %10.20 °C 
08:15:0011.10 °C1018.80 hPa88.00 %9.20 °C 
08:00:009.90 °C1018.60 hPa88.00 %8.00 °C 
07:45:008.90 °C1018.60 hPa89.00 %7.20 °C 
07:30:007.90 °C1018.40 hPa88.00 %6.00 °C 
07:15:007.50 °C1018.40 hPa88.00 %5.60 °C 
07:00:007.20 °C1018.30 hPa88.00 %5.30 °C 
06:45:007.20 °C1018.50 hPa88.00 %5.30 °C 
06:30:007.30 °C1018.50 hPa88.00 %5.40 °C 
06:15:007.40 °C1018.20 hPa88.00 %5.50 °C 
06:00:007.40 °C1018.10 hPa87.00 %5.40 °C 
05:45:007.50 °C1018.20 hPa87.00 %5.50 °C 
05:30:007.80 °C1018.40 hPa87.00 %5.80 °C 
05:15:007.90 °C1018.50 hPa86.00 %5.70 °C 
05:00:007.90 °C1018.40 hPa86.00 %5.70 °C 
04:45:008.20 °C1018.30 hPa86.00 %6.00 °C 
04:30:008.30 °C1018.40 hPa86.00 %6.10 °C 
04:15:008.10 °C1018.50 hPa86.00 %5.90 °C 
04:00:007.60 °C1018.50 hPa86.00 %5.40 °C 
03:45:007.30 °C1018.60 hPa85.00 %5.00 °C 
03:30:007.50 °C1018.70 hPa85.00 %5.10 °C 
03:15:007.30 °C1018.70 hPa85.00 %5.00 °C 
03:00:007.40 °C1018.70 hPa84.00 %4.90 °C 
02:45:007.40 °C1018.70 hPa83.00 %4.70 °C 
02:30:007.60 °C1018.70 hPa83.00 %4.90 °C 
02:15:007.90 °C1018.70 hPa82.00 %5.00 °C 
02:00:008.50 °C1018.60 hPa82.00 %5.60 °C 
01:45:009.00 °C1018.90 hPa82.00 %6.10 °C 
01:30:009.30 °C1018.90 hPa82.00 %6.40 °C 
01:15:009.30 °C1019.00 hPa82.00 %6.40 °C 
01:00:009.10 °C1019.10 hPa82.00 %6.20 °C 
00:45:008.90 °C1018.90 hPa81.00 %5.80 °C 
00:30:009.00 °C1018.90 hPa80.00 %5.70 °C 
00:15:009.50 °C1019.00 hPa80.00 %6.20 °C 
00:00:009.90 °C1018.90 hPa79.00 %6.40 °C 

Permanenter Link zu dieser Seite: Wetter im Erzgebirge am 01.09.2016
Performance-Info: Die Erstellung der Seite / Statistik(en) / Tabelle(n) erforderte 5 Datenbankserver-Abfrage(n) und dauerte 118 Millisekunden. (Dieser Messwert ist von der Gesamt-Auslastung des Servers abhängig.)
Erzgebirge - Wetter | Erzgebirge - Wetter (Mobilgeräte) | Komplette Klimadatenbank